Time,TemperatureF,DewpointF,PressureIn,WindDirection,WindDirectionDegrees,WindSpeedMPH,WindSpeedGustMPH,Humidity,HourlyPrecipIn,Conditions,Clouds,dailyrainin,SolarRadiationWatts/m^2,SoftwareType,DateUTC
2013-02-20 00:02:00,32.0,27.0,-100.00,West,268,1.0,3.0,80,0.00,,,0.08,0.000000,,2013-02-20 05:02:00,
2013-02-20 00:10:00,32.0,27.0,-100.00,East,86,0.0,4.0,83,0.00,,,0.08,0.000000,,2013-02-20 05:10:00,
2013-02-20 00:43:00,32.0,27.0,-100.00,East,86,0.0,4.0,83,0.00,,,0.08,0.000000,,2013-02-20 05:43:00,
2013-02-20 00:52:00,32.0,27.0,-100.00,East,86,0.0,4.0,83,0.00,,,0.08,0.000000,,2013-02-20 05:52:00,
2013-02-20 01:02:00,32.0,27.0,-100.00,East,86,0.0,4.0,83,0.00,,,0.08,0.000000,,2013-02-20 06:02:00,
2013-02-20 01:10:00,31.0,29.0,-100.00,SW,219,1.0,1.0,91,0.00,,,0.08,0.000000,,2013-02-20 06:10:00,
2013-02-20 01:42:00,31.0,29.0,-100.00,SW,219,1.0,1.0,91,0.00,,,0.08,0.000000,,2013-02-20 06:42:00,
2013-02-20 01:52:00,31.0,29.0,-100.00,SW,219,1.0,1.0,91,0.00,,,0.08,0.000000,,2013-02-20 06:52:00,
2013-02-20 02:02:00,31.0,29.0,-100.00,SW,219,1.0,1.0,91,0.00,,,0.08,0.000000,,2013-02-20 07:02:00,
2013-02-20 03:10:00,31.0,31.0,-100.00,WSW,250,2.0,7.0,99,-99.99,,,0.08,0.000000,,2013-02-20 08:10:00,
2013-02-20 03:42:00,31.0,31.0,-100.00,WSW,250,2.0,7.0,99,-99.99,,,0.08,0.000000,,2013-02-20 08:42:00,
2013-02-20 03:52:00,31.0,31.0,-100.00,WSW,250,2.0,7.0,99,-99.99,,,0.08,0.000000,,2013-02-20 08:52:00,
2013-02-20 04:02:00,31.0,31.0,-100.00,WSW,250,2.0,7.0,99,-99.99,,,0.08,0.000000,,2013-02-20 09:02:00,
2013-02-20 04:10:00,29.0,26.0,-100.00,West,279,3.0,8.0,90,0.00,,,0.08,0.000000,,2013-02-20 09:10:00,
2013-02-20 04:32:00,29.0,26.0,-100.00,West,279,3.0,8.0,90,0.00,,,0.08,0.000000,,2013-02-20 09:32:00,
2013-02-20 04:42:00,29.0,26.0,-100.00,West,279,3.0,8.0,90,0.00,,,0.08,0.000000,,2013-02-20 09:42:00,
2013-02-20 04:52:00,29.0,26.0,-100.00,West,279,3.0,8.0,90,0.00,,,0.08,0.000000,,2013-02-20 09:52:00,
2013-02-20 05:01:00,29.0,26.0,-100.00,West,279,3.0,8.0,90,0.00,,,0.08,0.000000,,2013-02-20 10:01:00,
2013-02-20 05:10:00,28.0,25.0,-100.00,WSW,239,1.0,5.0,89,0.00,,,0.08,0.000000,,2013-02-20 10:10:00,
2013-02-20 05:32:00,28.0,25.0,-100.00,WSW,239,1.0,5.0,89,0.00,,,0.08,0.000000,,2013-02-20 10:32:00,
2013-02-20 05:42:00,28.0,25.0,-100.00,WSW,239,1.0,5.0,89,0.00,,,0.08,0.000000,,2013-02-20 10:42:00,
2013-02-20 05:52:00,28.0,25.0,-100.00,WSW,239,1.0,5.0,89,0.00,,,0.08,0.000000,,2013-02-20 10:52:00,
2013-02-20 06:02:00,28.0,25.0,-100.00,WSW,239,1.0,5.0,89,0.00,,,0.08,0.000000,,2013-02-20 11:02:00,
2013-02-20 06:10:00,26.0,23.0,-100.00,SW,227,2.0,8.0,88,0.00,,,0.08,0.000000,,2013-02-20 11:10:00,
2013-02-20 06:42:00,26.0,23.0,-100.00,SW,227,2.0,8.0,88,0.00,,,0.08,0.000000,,2013-02-20 11:42:00,
2013-02-20 06:52:00,26.0,23.0,-100.00,SW,227,2.0,8.0,88,0.00,,,0.08,0.000000,,2013-02-20 11:52:00,
2013-02-20 07:02:00,26.0,23.0,-100.00,SW,227,2.0,8.0,88,0.00,,,0.08,0.000000,,2013-02-20 12:02:00,
2013-02-20 07:10:00,26.0,22.0,-100.00,SW,229,2.0,6.0,84,0.00,,,0.08,0.000000,,2013-02-20 12:10:00,
2013-02-20 07:32:00,26.0,22.0,-100.00,SW,229,2.0,6.0,84,0.00,,,0.08,0.000000,,2013-02-20 12:32:00,
2013-02-20 07:42:00,26.0,22.0,-100.00,SW,229,2.0,6.0,84,0.00,,,0.08,0.000000,,2013-02-20 12:42:00,
2013-02-20 07:53:00,26.0,22.0,-100.00,SW,229,2.0,6.0,84,0.00,,,0.08,0.000000,,2013-02-20 12:53:00,
2013-02-20 08:01:00,26.0,22.0,-100.00,SW,229,2.0,6.0,84,0.00,,,0.08,0.000000,,2013-02-20 13:01:00,
2013-02-20 09:10:00,28.0,18.0,-100.00,West,263,6.0,15.0,67,-99.99,,,0.08,10.000000,,2013-02-20 14:10:00,
2013-02-20 09:42:00,28.0,18.0,-100.00,West,263,6.0,15.0,67,-99.99,,,0.08,10.000000,,2013-02-20 14:42:00,
2013-02-20 09:52:00,28.0,18.0,-100.00,West,263,6.0,15.0,67,-99.99,,,0.08,10.000000,,2013-02-20 14:52:00,
2013-02-20 10:02:00,28.0,18.0,-100.00,West,263,6.0,15.0,67,-99.99,,,0.08,10.000000,,2013-02-20 15:02:00,
2013-02-20 10:10:00,28.0,17.0,-100.00,West,272,7.0,18.0,64,0.00,,,0.08,9.000000,,2013-02-20 15:10:00,
2013-02-20 10:42:00,28.0,17.0,-100.00,West,272,7.0,18.0,64,0.00,,,0.08,9.000000,,2013-02-20 15:42:00,
2013-02-20 10:52:00,28.0,17.0,-100.00,West,272,7.0,18.0,64,0.00,,,0.08,9.000000,,2013-02-20 15:52:00,
2013-02-20 11:01:00,28.0,17.0,-100.00,West,272,7.0,18.0,64,0.00,,,0.08,9.000000,,2013-02-20 16:01:00,
2013-02-20 11:10:00,28.0,16.0,-100.00,West,271,6.0,16.0,59,0.00,,,0.08,13.000000,,2013-02-20 16:10:00,
2013-02-20 11:42:00,28.0,16.0,-100.00,West,271,6.0,16.0,59,0.00,,,0.08,13.000000,,2013-02-20 16:42:00,
2013-02-20 11:52:00,28.0,16.0,-100.00,West,271,6.0,16.0,59,0.00,,,0.08,13.000000,,2013-02-20 16:52:00,
2013-02-20 12:01:00,28.0,16.0,-100.00,West,271,6.0,16.0,59,0.00,,,0.08,13.000000,,2013-02-20 17:01:00,
2013-02-20 12:10:00,28.0,16.0,-100.00,West,277,4.0,15.0,60,0.00,,,0.08,11.000000,,2013-02-20 17:10:00,
2013-02-20 12:42:00,28.0,16.0,-100.00,West,277,4.0,15.0,60,0.00,,,0.08,11.000000,,2013-02-20 17:42:00,
2013-02-20 12:52:00,28.0,16.0,-100.00,West,277,4.0,15.0,60,0.00,,,0.08,11.000000,,2013-02-20 17:52:00,
2013-02-20 13:02:00,28.0,16.0,-100.00,West,277,4.0,15.0,60,0.00,,,0.08,11.000000,,2013-02-20 18:02:00,
2013-02-20 13:10:00,27.0,15.0,-100.00,WSW,253,4.0,11.0,60,0.00,,,0.08,8.000000,,2013-02-20 18:10:00,
2013-02-20 13:32:00,27.0,15.0,-100.00,WSW,253,4.0,11.0,60,0.00,,,0.08,8.000000,,2013-02-20 18:32:00,
2013-02-20 13:42:00,27.0,15.0,-100.00,WSW,253,4.0,11.0,60,0.00,,,0.08,8.000000,,2013-02-20 18:42:00,
2013-02-20 13:52:00,27.0,15.0,-100.00,WSW,253,4.0,11.0,60,0.00,,,0.08,8.000000,,2013-02-20 18:52:00,
2013-02-20 14:01:00,27.0,15.0,-100.00,WSW,253,4.0,11.0,60,0.00,,,0.08,8.000000,,2013-02-20 19:01:00,
2013-02-20 14:10:00,26.0,13.0,-100.00,West,271,6.0,15.0,58,0.00,,,0.06,6.000000,,2013-02-20 19:10:00,
2013-02-20 14:32:00,26.0,13.0,-100.00,West,271,6.0,15.0,58,0.00,,,0.06,6.000000,,2013-02-20 19:32:00,
2013-02-20 14:42:00,26.0,13.0,-100.00,West,271,6.0,15.0,58,0.00,,,0.06,6.000000,,2013-02-20 19:42:00,
2013-02-20 14:52:00,26.0,13.0,-100.00,West,271,6.0,15.0,58,0.00,,,0.06,6.000000,,2013-02-20 19:52:00,
2013-02-20 15:01:00,26.0,13.0,-100.00,West,271,6.0,15.0,58,0.00,,,0.06,6.000000,,2013-02-20 20:01:00,
2013-02-20 15:10:00,26.0,17.0,-100.00,WSW,257,3.0,9.0,67,0.00,,,0.04,8.000000,,2013-02-20 20:10:00,
2013-02-20 15:41:00,26.0,17.0,-100.00,WSW,257,3.0,9.0,67,0.00,,,0.04,8.000000,,2013-02-20 20:41:00,
2013-02-20 15:52:00,26.0,17.0,-100.00,WSW,257,3.0,9.0,67,0.00,,,0.04,8.000000,,2013-02-20 20:52:00,
2013-02-20 16:01:00,26.0,17.0,-100.00,WSW,257,3.0,9.0,67,0.00,,,0.04,8.000000,,2013-02-20 21:01:00,
2013-02-20 16:10:00,25.0,18.0,-100.00,WSW,240,3.0,7.0,73,0.00,,,0.03,7.000000,,2013-02-20 21:10:00,
2013-02-20 16:42:00,25.0,18.0,-100.00,WSW,240,3.0,7.0,73,0.00,,,0.03,7.000000,,2013-02-20 21:42:00,
2013-02-20 16:52:00,25.0,18.0,-100.00,WSW,240,3.0,7.0,73,0.00,,,0.03,7.000000,,2013-02-20 21:52:00,
2013-02-20 17:02:00,25.0,18.0,-100.00,WSW,240,3.0,7.0,73,0.00,,,0.03,7.000000,,2013-02-20 22:02:00,
2013-02-20 17:10:00,23.0,16.0,-100.00,WSW,243,2.0,9.0,75,0.00,,,0.02,2.000000,,2013-02-20 22:10:00,
2013-02-20 17:43:00,23.0,16.0,-100.00,WSW,243,2.0,9.0,75,0.00,,,0.02,2.000000,,2013-02-20 22:43:00,
2013-02-20 17:52:00,23.0,16.0,-100.00,WSW,243,2.0,9.0,75,0.00,,,0.02,2.000000,,2013-02-20 22:52:00,
2013-02-20 18:01:00,23.0,16.0,-100.00,WSW,243,2.0,9.0,75,0.00,,,0.02,2.000000,,2013-02-20 23:01:00,
2013-02-20 18:10:00,22.0,18.0,-100.00,West,272,2.0,4.0,84,0.00,,,0.01,0.000000,,2013-02-20 23:10:00,
2013-02-20 18:32:00,22.0,18.0,-100.00,West,272,2.0,4.0,84,0.00,,,0.01,0.000000,,2013-02-20 23:32:00,
2013-02-20 18:43:00,22.0,18.0,-100.00,West,272,2.0,4.0,84,0.00,,,0.01,0.000000,,2013-02-20 23:43:00,
2013-02-20 18:53:00,22.0,18.0,-100.00,West,272,2.0,4.0,84,0.00,,,0.01,0.000000,,2013-02-20 23:53:00,
2013-02-20 19:03:00,22.0,18.0,-100.00,West,272,2.0,4.0,84,0.00,,,0.01,0.000000,,2013-02-21 00:03:00,
2013-02-20 19:10:00,23.0,18.0,-100.00,SW,233,2.0,7.0,80,0.00,,,-99.99,0.000000,,2013-02-21 00:10:00,
2013-02-20 19:32:00,23.0,18.0,-100.00,SW,233,2.0,7.0,80,0.00,,,-99.99,0.000000,,2013-02-21 00:32:00,
2013-02-20 19:42:00,23.0,18.0,-100.00,SW,233,2.0,7.0,80,0.00,,,-99.99,0.000000,,2013-02-21 00:42:00,
2013-02-20 19:52:00,23.0,18.0,-100.00,SW,233,2.0,7.0,80,0.00,,,-99.99,0.000000,,2013-02-21 00:52:00,
2013-02-20 20:01:00,23.0,18.0,-100.00,SW,233,2.0,7.0,80,0.00,,,-99.99,0.000000,,2013-02-21 01:01:00,
2013-02-20 20:10:00,22.0,16.0,-100.00,WSW,256,3.0,8.0,77,0.00,,,0.00,0.000000,,2013-02-21 01:10:00,
2013-02-20 20:32:00,22.0,16.0,-100.00,WSW,256,3.0,8.0,77,0.00,,,0.00,0.000000,,2013-02-21 01:32:00,
2013-02-20 20:42:00,22.0,16.0,-100.00,WSW,256,3.0,8.0,77,0.00,,,0.00,0.000000,,2013-02-21 01:42:00,
2013-02-20 20:52:00,22.0,16.0,-100.00,WSW,256,3.0,8.0,77,0.00,,,0.00,0.000000,,2013-02-21 01:52:00,
2013-02-20 21:02:00,22.0,16.0,-100.00,WSW,256,3.0,8.0,77,0.00,,,0.00,0.000000,,2013-02-21 02:02:00,
2013-02-20 21:10:00,23.0,14.0,-100.00,WSW,250,5.0,14.0,67,0.00,,,0.00,0.000000,,2013-02-21 02:10:00,
2013-02-20 21:32:00,23.0,14.0,-100.00,WSW,250,5.0,14.0,67,0.00,,,0.00,0.000000,,2013-02-21 02:32:00,
2013-02-20 21:42:00,23.0,14.0,-100.00,WSW,250,5.0,14.0,67,0.00,,,0.00,0.000000,,2013-02-21 02:42:00,
2013-02-20 21:52:00,23.0,14.0,-100.00,WSW,250,5.0,14.0,67,0.00,,,0.00,0.000000,,2013-02-21 02:52:00,
2013-02-20 22:02:00,23.0,14.0,-100.00,WSW,250,5.0,14.0,67,0.00,,,0.00,0.000000,,2013-02-21 03:02:00,
2013-02-20 22:10:00,22.0,12.0,-100.00,West,273,5.0,15.0,66,0.00,,,0.00,0.000000,,2013-02-21 03:10:00,
2013-02-20 22:42:00,22.0,12.0,-100.00,West,273,5.0,15.0,66,0.00,,,0.00,0.000000,,2013-02-21 03:42:00,
2013-02-20 22:52:00,22.0,12.0,-100.00,West,273,5.0,15.0,66,0.00,,,0.00,0.000000,,2013-02-21 03:52:00,
2013-02-20 23:01:00,22.0,12.0,-100.00,West,273,5.0,15.0,66,0.00,,,0.00,0.000000,,2013-02-21 04:01:00,
2013-02-20 23:10:00,22.0,13.0,-100.00,WSW,258,3.0,10.0,69,0.00,,,0.00,0.000000,,2013-02-21 04:10:00,
2013-02-20 23:32:00,22.0,13.0,-100.00,WSW,258,3.0,10.0,69,0.00,,,0.00,0.000000,,2013-02-21 04:32:00,
2013-02-20 23:42:00,22.0,13.0,-100.00,WSW,258,3.0,10.0,69,0.00,,,0.00,0.000000,,2013-02-21 04:42:00,
2013-02-20 23:52:00,22.0,13.0,-100.00,WSW,258,3.0,10.0,69,0.00,,,0.00,0.000000,,2013-02-21 04:52:00,